Time;durP1;ratioP1;P1;durP2;ratioP2;P2;SDS_P1;SDS_P2;PMS_P1;PMS_P2;Temp;Humidity;BMP_temperature;BMP_pressure;BME280_temperature;BME280_humidity;BME280_pressure;Samples;Min_cycle;Max_cycle;Signal;HPM_P1;HPM_P2
2024/03/11 06:27:43;;;;;;;1.90;1.00;;;;;;;3.66;100.00;95221.59;2106782;27;20549;-67
2024/03/11 06:28:45;;;;;;;1.75;0.80;;;;;;;3.83;100.00;95227.84;2095161;28;20204;-66
2024/03/11 06:29:53;;;;;;;1.85;0.82;;;;;;;4.03;100.00;95242.53;2088799;28;20196;-66
2024/03/11 06:37:08;;;;;;;3.33;1.40;;;;;;;4.49;95.92;95240.56;2098837;27;20509;-66
2024/03/11 06:38:09;;;;;;;4.00;1.30;;;;;;;4.65;95.37;95242.50;2096272;28;20264;-67
2024/03/11 06:39:11;;;;;;;2.63;1.17;;;;;;;4.76;94.66;95245.44;2089548;28;20249;-67
2024/03/11 06:44:35;;;;;;;2.25;0.80;;;;;;;5.09;92.80;95265.53;2107573;27;20569;-67
2024/03/11 06:45:42;;;;;;;2.95;1.00;;;;;;;5.23;92.12;95244.22;2097118;27;20222;-67
2024/03/11 06:51:43;;;;;;;4.53;1.20;;;;;;;4.38;94.39;95261.72;2106954;27;20584;-64
2024/03/11 06:56:39;;;;;;;3.25;0.85;;;;;;;4.37;95.75;95267.78;2105813;27;20619;-66
2024/03/11 07:00:27;;;;;;;1.70;0.90;;;;;;;4.64;94.73;95285.63;2104330;27;20594;-66
2024/03/11 07:05:13;;;;;;;3.58;0.80;;;;;;;4.46;95.42;95279.50;2111149;27;20538;-64
2024/03/11 07:09:15;;;;;;;6.25;1.33;;;;;;;4.52;94.73;95275.78;2106084;27;21055;-66
2024/03/11 07:10:16;;;;;;;2.45;1.08;;;;;;;4.57;94.80;95277.28;2100232;27;20299;-66
2024/03/11 07:11:18;;;;;;;2.35;1.10;;;;;;;4.81;93.33;95286.63;2089088;28;20300;-66
2024/03/11 07:12:20;;;;;;;4.50;0.95;;;;;;;5.08;92.62;95287.19;2088804;28;20202;-66
2024/03/11 07:13:21;;;;;;;1.60;0.90;;;;;;;5.31;91.76;95287.91;2089648;28;20249;-67
2024/03/11 07:14:23;;;;;;;2.42;0.80;;;;;;;5.74;90.58;95291.09;2089508;28;20257;-67
2024/03/11 07:15:25;;;;;;;2.15;0.90;;;;;;;6.10;88.90;95287.66;2089388;28;20254;-67
2024/03/11 07:16:27;;;;;;;2.58;1.00;;;;;;;6.36;87.89;95301.09;2090538;28;20212;-67
2024/03/11 07:17:29;;;;;;;1.80;0.90;;;;;;;6.30;85.80;95291.88;2097037;28;20221;-66
2024/03/11 07:18:31;;;;;;;1.80;0.90;;;;;;;6.56;85.53;95294.09;2097900;28;20261;-66
2024/03/11 07:19:33;;;;;;;2.22;0.82;;;;;;;6.84;84.81;95303.91;2090248;28;20896;-67
2024/03/11 07:20:36;;;;;;;1.60;0.90;;;;;;;6.54;83.77;95274.25;2089830;28;20227;-67
2024/03/11 07:21:38;;;;;;;2.35;0.88;;;;;;;6.82;84.20;95300.56;2097102;28;20569;-67
2024/03/11 07:22:40;;;;;;;4.07;1.17;;;;;;;6.96;83.70;95302.44;2097644;28;20839;-66
2024/03/11 07:23:41;;;;;;;3.20;1.15;;;;;;;7.12;82.23;95312.84;2086379;28;20223;-67
2024/03/11 07:24:43;;;;;;;2.63;1.38;;;;;;;6.94;83.68;95312.88;2089472;28;20200;-67
2024/03/11 07:25:45;;;;;;;4.15;2.00;;;;;;;7.11;82.59;95312.03;2088271;28;20735;-67
2024/03/11 07:26:46;;;;;;;2.05;0.98;;;;;;;6.93;82.79;95313.81;2086294;28;20249;-67
2024/03/11 07:27:47;;;;;;;2.85;0.90;;;;;;;7.30;81.35;95316.25;2086539;28;20219;-67
2024/03/11 07:28:49;;;;;;;3.15;0.90;;;;;;;7.16;81.26;95315.22;2089950;28;20255;-67
2024/03/11 07:29:51;;;;;;;12.80;0.90;;;;;;;7.46;80.59;95313.69;2095758;28;20195;-67
2024/03/11 07:30:53;;;;;;;2.60;1.00;;;;;;;7.65;80.16;95314.34;2094003;28;20199;-67
2024/03/11 07:31:55;;;;;;;1.92;1.00;;;;;;;8.48;78.43;95295.94;2090145;28;20193;-67
2024/03/11 07:33:14;;;;;;;1.50;0.90;;;;;;;8.53;77.11;95320.84;2090422;28;20207;-67
2024/03/11 07:34:15;;;;;;;2.20;0.85;;;;;;;8.90;76.66;95316.06;2090211;28;20302;-68
2024/03/11 07:35:17;;;;;;;4.05;1.30;;;;;;;9.12;74.64;95323.47;2089681;28;20224;-68
2024/03/11 07:36:18;;;;;;;2.35;1.00;;;;;;;9.13;74.44;95289.50;2089733;28;20280;-68
2024/03/11 07:37:25;;;;;;;1.60;0.90;;;;;;;9.64;73.35;95322.88;2090425;28;20192;-68
2024/03/11 07:38:27;;;;;;;4.75;1.77;;;;;;;9.82;73.99;95324.44;2090141;28;20207;-68
2024/03/11 07:39:29;;;;;;;1.42;0.90;;;;;;;10.43;73.23;95324.94;2089215;28;20212;-68
2024/03/11 07:40:32;;;;;;;1.60;0.80;;;;;;;10.39;71.77;95326.06;2085931;28;20796;-68
2024/03/11 07:41:34;;;;;;;3.35;0.85;;;;;;;10.69;71.05;95328.47;2086703;28;20236;-68
2024/03/11 07:42:35;;;;;;;1.75;0.80;;;;;;;11.46;67.93;95329.44;2089892;28;20200;-68
2024/03/11 07:43:37;;;;;;;6.35;0.95;;;;;;;11.76;65.61;95322.06;2092207;28;20208;-68
2024/03/11 07:44:38;;;;;;;2.17;0.80;;;;;;;12.86;63.38;95329.91;2098195;28;20243;-68
2024/03/11 07:45:40;;;;;;;1.80;0.90;;;;;;;12.00;64.73;95333.53;2088197;28;20262;-68
2024/03/11 07:46:45;;;;;;;2.97;0.90;;;;;;;10.35;67.61;95335.84;2088309;28;20200;-68
2024/03/11 07:47:47;;;;;;;2.75;1.00;;;;;;;10.42;69.23;95339.78;2090766;28;20196;-68
2024/03/11 07:48:49;;;;;;;1.40;0.80;;;;;;;10.53;70.66;95339.06;2089667;28;20200;-68
2024/03/11 07:49:50;;;;;;;2.08;1.00;;;;;;;10.96;68.30;95340.63;2089468;28;20204;-68
2024/03/11 07:50:51;;;;;;;1.70;0.80;;;;;;;10.44;69.73;95329.22;2085906;28;20248;-62
2024/03/11 07:51:55;;;;;;;1.55;0.85;;;;;;;10.93;69.97;95341.66;2089295;28;20249;-63
2024/03/11 07:52:57;;;;;;;2.10;0.70;;;;;;;11.31;68.50;95337.38;2087720;28;20702;-63
2024/03/11 07:53:58;;;;;;;1.98;0.93;;;;;;;11.93;67.50;95333.09;2087948;28;20207;-62
2024/03/11 07:55:00;;;;;;;4.35;1.10;;;;;;;11.96;67.14;95326.84;2085722;28;20200;-63
2024/03/11 07:56:04;;;;;;;1.90;0.80;;;;;;;12.28;65.87;95339.41;2087183;28;20200;-62
2024/03/11 07:57:06;;;;;;;2.15;0.93;;;;;;;12.15;64.24;95334.22;2089949;28;20208;-63
2024/03/11 07:58:08;;;;;;;2.80;0.90;;;;;;;12.52;64.81;95340.25;2089985;28;20206;-64
2024/03/11 07:59:10;;;;;;;1.83;0.80;;;;;;;12.56;63.47;95331.22;2090528;28;20184;-63
2024/03/11 08:00:18;;;;;;;1.95;1.02;;;;;;;12.94;63.00;95331.94;2088900;28;20442;-61
2024/03/11 08:01:21;;;;;;;3.47;0.80;;;;;;;13.03;63.63;95335.66;2096630;28;20196;-61
2024/03/11 08:02:23;;;;;;;3.13;1.02;;;;;;;13.76;61.79;95343.28;2097310;28;20206;-61
2024/03/11 08:03:25;;;;;;;2.00;0.80;;;;;;;12.85;63.00;95340.47;2086103;28;20227;-61
2024/03/11 08:04:26;;;;;;;1.48;0.80;;;;;;;14.10;61.30;95340.63;2088974;28;20196;-61
2024/03/11 08:05:28;;;;;;;3.00;0.93;;;;;;;13.98;61.28;95345.03;2084992;28;20286;-61
2024/03/11 08:06:30;;;;;;;2.35;0.80;;;;;;;12.90;62.58;95341.00;2089651;28;20449;-61
2024/03/11 08:07:32;;;;;;;5.40;0.90;;;;;;;13.13;61.83;95343.66;2083037;28;20665;-60
2024/03/11 08:08:34;;;;;;;6.25;0.90;;;;;;;12.47;63.79;95347.59;2089909;28;20613;-60
2024/03/11 08:09:37;;;;;;;4.85;0.85;;;;;;;12.22;64.97;95346.75;2090666;28;20239;-60
2024/03/11 08:10:38;;;;;;;2.22;0.70;;;;;;;12.47;63.58;95345.00;2097755;28;20224;-60
2024/03/11 08:11:44;;;;;;;2.55;0.80;;;;;;;11.76;66.85;95357.84;2098065;28;20642;-60
2024/03/11 08:12:51;;;;;;;2.60;1.00;;;;;;;12.44;64.96;95349.59;2089698;28;20680;-60
2024/03/11 08:13:53;;;;;;;3.35;0.85;;;;;;;12.67;64.53;95354.00;2093763;28;20252;-60
2024/03/11 08:14:54;;;;;;;1.70;0.90;;;;;;;13.69;61.28;95349.00;2093752;28;20663;-61
2024/03/11 08:15:56;;;;;;;2.60;1.08;;;;;;;13.44;60.82;95351.84;2085987;28;20200;-61
2024/03/11 08:16:57;;;;;;;1.30;0.65;;;;;;;13.94;61.03;95364.59;2086756;28;20235;-60
2024/03/11 08:17:59;;;;;;;1.85;0.90;;;;;;;13.64;61.16;95355.56;2090869;28;20593;-62
2024/03/11 08:19:01;;;;;;;1.40;0.60;;;;;;;12.90;61.08;95360.16;2090983;28;20858;-62
2024/03/11 08:20:04;;;;;;;2.53;0.90;;;;;;;12.22;63.69;95361.63;2087767;28;20291;-62
2024/03/11 08:21:09;;;;;;;2.20;0.90;;;;;;;11.75;64.38;95362.22;2085619;28;20192;-62
2024/03/11 08:22:14;;;;;;;2.30;1.08;;;;;;;11.79;64.59;95365.47;2084564;28;20193;-62
2024/03/11 08:23:15;;;;;;;1.88;0.90;;;;;;;11.87;64.47;95373.63;2083692;28;20196;-62
2024/03/11 08:24:17;;;;;;;2.17;0.90;;;;;;;12.41;64.20;95371.59;2084123;28;20707;-62
2024/03/11 08:25:22;;;;;;;2.90;0.98;;;;;;;12.65;63.56;95365.53;2083851;28;20235;-62
2024/03/11 08:26:24;;;;;;;6.20;0.90;;;;;;;12.10;63.99;95368.59;2083415;28;20193;-62
2024/03/11 08:27:26;;;;;;;1.92;0.73;;;;;;;11.83;64.37;95373.94;2084982;28;20616;-62
2024/03/11 08:28:28;;;;;;;2.42;1.00;;;;;;;11.93;64.61;95378.44;2084154;28;20592;-61
2024/03/11 08:29:31;;;;;;;1.60;0.75;;;;;;;11.68;65.04;95383.69;2083401;28;20217;-62
2024/03/11 08:30:33;;;;;;;1.67;0.88;;;;;;;12.19;65.42;95378.38;2085799;28;20715;-62
2024/03/11 08:31:34;;;;;;;4.53;1.05;;;;;;;11.81;64.90;95363.59;2087941;28;20197;-62
2024/03/11 08:32:37;;;;;;;1.65;0.80;;;;;;;11.86;64.79;95366.72;2088250;28;20676;-61
2024/03/11 08:33:38;;;;;;;1.52;0.70;;;;;;;11.66;64.37;95346.34;2087931;28;20212;-62
2024/03/11 08:34:41;;;;;;;3.03;0.90;;;;;;;11.69;65.08;95382.75;2082207;28;20208;-61
2024/03/11 08:35:42;;;;;;;3.80;0.80;;;;;;;11.62;66.07;95384.94;2077967;28;20259;-62
2024/03/11 08:36:44;;;;;;;3.17;0.90;;;;;;;11.61;65.36;95391.13;2080796;28;20649;-62
2024/03/11 08:37:45;;;;;;;3.15;0.70;;;;;;;11.63;65.66;95391.00;2082362;28;20284;-61
2024/03/11 08:38:48;;;;;;;2.15;0.82;;;;;;;11.62;66.22;95382.34;2084326;28;20246;-61
2024/03/11 08:39:51;;;;;;;1.40;0.75;;;;;;;11.69;65.67;95374.91;2085114;28;20199;-61
2024/03/11 08:40:53;;;;;;;4.15;0.90;;;;;;;11.80;65.92;95367.13;2082479;28;20220;-61
2024/03/11 08:41:54;;;;;;;2.58;0.60;;;;;;;12.10;64.78;95363.34;2080644;28;20193;-61
2024/03/11 08:42:56;;;;;;;3.78;0.85;;;;;;;12.48;63.94;95377.22;2081350;28;20768;-61
2024/03/11 08:43:58;;;;;;;1.40;0.77;;;;;;;12.40;64.52;95396.97;2084525;28;20253;-61
2024/03/11 08:45:00;;;;;;;1.60;0.90;;;;;;;12.48;64.48;95390.31;2083734;28;20594;-62
2024/03/11 08:46:01;;;;;;;2.50;0.82;;;;;;;12.46;63.67;95390.44;2083396;28;20197;-62
2024/03/11 08:47:04;;;;;;;2.95;0.82;;;;;;;12.17;63.93;95393.34;2091849;28;20212;-62
2024/03/11 08:48:13;;;;;;;1.85;0.95;;;;;;;12.40;64.24;95394.34;2081800;28;20283;-61
2024/03/11 08:49:15;;;;;;;3.33;1.30;;;;;;;12.53;64.72;95396.91;2090670;28;20323;-61
2024/03/11 08:50:17;;;;;;;1.95;0.82;;;;;;;12.75;64.04;95395.34;2089963;28;20682;-62
2024/03/11 08:51:19;;;;;;;3.13;0.90;;;;;;;12.42;63.98;95394.22;2084314;28;20223;-63
2024/03/11 08:52:20;;;;;;;2.85;0.90;;;;;;;12.95;64.49;95403.50;2080658;28;20205;-62
2024/03/11 08:53:23;;;;;;;1.50;0.80;;;;;;;13.09;63.31;95402.47;2090304;28;20200;-61
2024/03/11 08:54:24;;;;;;;4.70;1.50;;;;;;;13.12;63.35;95397.84;2090498;28;20200;-62
2024/03/11 08:55:26;;;;;;;4.00;0.80;;;;;;;13.42;62.54;95399.16;2088678;28;20277;-62
2024/03/11 08:56:28;;;;;;;2.20;0.98;;;;;;;13.28;61.97;95400.19;2083704;28;20197;-62
2024/03/11 08:57:30;;;;;;;3.40;1.10;;;;;;;14.03;61.72;95401.47;2081422;28;20243;-62
2024/03/11 08:58:32;;;;;;;3.25;1.23;;;;;;;13.63;60.91;95401.91;2082036;28;20714;-61
2024/03/11 08:59:34;;;;;;;3.95;1.50;;;;;;;13.73;61.21;95407.31;2085646;28;20212;-62
2024/03/11 09:00:36;;;;;;;2.42;1.42;;;;;;;14.03;60.61;95411.13;2084559;28;20278;-61
2024/03/11 09:01:40;;;;;;;3.85;1.83;;;;;;;14.41;60.39;95406.44;2084058;28;20208;-62
2024/03/11 09:02:44;;;;;;;7.50;1.13;;;;;;;14.07;60.09;95409.09;2083828;28;20224;-62
2024/03/11 09:03:46;;;;;;;3.50;1.40;;;;;;;14.36;60.37;95407.63;2084421;28;20200;-62
2024/03/11 09:04:47;;;;;;;2.13;0.80;;;;;;;13.90;60.70;95410.41;2080395;28;20261;-62
2024/03/11 09:05:49;;;;;;;3.47;1.10;;;;;;;13.97;60.17;95414.25;2077927;28;20328;-62
2024/03/11 09:06:51;;;;;;;3.20;1.00;;;;;;;13.47;60.17;95409.28;2085891;28;20250;-62
2024/03/11 09:07:52;;;;;;;3.83;0.90;;;;;;;13.08;60.56;95391.19;2084170;28;20689;-62
2024/03/11 09:08:54;;;;;;;2.88;1.08;;;;;;;13.51;61.21;95414.19;2083952;28;20324;-62
2024/03/11 09:09:57;;;;;;;2.03;1.10;;;;;;;13.27;60.60;95414.22;2084054;28;20224;-63
2024/03/11 09:10:59;;;;;;;2.13;0.90;;;;;;;13.54;60.89;95421.00;2084536;28;20193;-62
2024/03/11 09:12:01;;;;;;;3.10;0.90;;;;;;;13.80;60.72;95424.25;2084218;28;20196;-62
2024/03/11 09:13:07;;;;;;;2.08;0.90;;;;;;;13.20;61.02;95400.75;2085232;28;20205;-62
2024/03/11 09:14:10;;;;;;;2.65;0.85;;;;;;;13.44;60.88;95414.78;2083573;28;20280;-62
2024/03/11 09:15:15;;;;;;;2.35;0.80;;;;;;;13.37;60.62;95425.72;2083046;28;20196;-62
2024/03/11 09:16:19;;;;;;;1.80;0.90;;;;;;;13.31;61.03;95425.31;2084136;28;20250;-61
2024/03/11 09:17:20;;;;;;;5.00;1.77;;;;;;;13.47;60.60;95428.50;2086262;28;20196;-61
2024/03/11 09:18:22;;;;;;;4.78;1.17;;;;;;;13.30;60.17;95415.78;2090538;28;20224;-61
2024/03/11 09:19:23;;;;;;;2.45;0.80;;;;;;;13.23;59.43;95434.59;2085594;28;20678;-62
2024/03/11 09:20:31;;;;;;;3.15;1.15;;;;;;;13.64;59.17;95421.13;2084158;28;20228;-61
2024/03/11 09:21:34;;;;;;;4.50;0.80;;;;;;;13.78;59.59;95426.16;2084205;28;20204;-62
2024/03/11 09:22:36;;;;;;;1.92;0.70;;;;;;;13.61;59.01;95423.97;2084228;28;20356;-62
2024/03/11 09:23:43;;;;;;;1.30;0.60;;;;;;;13.70;59.62;95420.66;2080278;28;20193;-61
2024/03/11 09:24:45;;;;;;;1.90;0.80;;;;;;;13.82;59.85;95427.56;2082727;28;20283;-62
2024/03/11 09:25:46;;;;;;;1.50;0.80;;;;;;;14.04;59.25;95428.53;2083987;28;20842;-62
2024/03/11 09:26:51;;;;;;;3.00;0.80;;;;;;;13.85;58.79;95434.38;2082591;28;20262;-62
2024/03/11 09:27:54;;;;;;;5.72;0.98;;;;;;;14.32;58.83;95426.38;2083678;28;20200;-68
2024/03/11 09:28:57;;;;;;;2.05;0.80;;;;;;;14.30;58.18;95430.94;2083466;28;20201;-68
2024/03/11 09:30:01;;;;;;;2.35;0.90;;;;;;;14.26;59.09;95432.09;2082541;28;20291;-68
2024/03/11 09:31:04;;;;;;;1.90;0.93;;;;;;;14.88;58.13;95440.38;2084696;28;20205;-68
2024/03/11 09:32:06;;;;;;;4.38;2.50;;;;;;;14.81;58.42;95438.25;2082228;28;20246;-68
2024/03/11 09:33:11;;;;;;;2.63;1.38;;;;;;;14.94;58.02;95447.75;2083845;28;20205;-68
2024/03/11 09:34:15;;;;;;;2.85;0.93;;;;;;;14.07;59.36;95435.34;2084111;28;20197;-68
2024/03/11 09:35:17;;;;;;;3.45;0.90;;;;;;;14.08;59.01;95445.72;2081014;28;20254;-68
2024/03/11 09:36:18;;;;;;;2.47;0.80;;;;;;;14.33;57.93;95431.50;2080625;28;20189;-68
2024/03/11 09:37:20;;;;;;;1.50;0.93;;;;;;;14.59;59.18;95440.88;2080530;28;20656;-62
2024/03/11 09:38:22;;;;;;;2.58;1.17;;;;;;;14.88;57.61;95443.84;2081610;28;20196;-62
2024/03/11 09:39:24;;;;;;;3.63;1.58;;;;;;;14.98;57.24;95446.53;2082515;28;20603;-62
2024/03/11 09:40:28;;;;;;;2.53;1.10;;;;;;;15.56;56.24;95447.97;2082643;28;20283;-62
2024/03/11 09:41:39;;;;;;;3.30;1.27;;;;;;;15.45;55.50;95449.72;2082999;28;20573;-62
2024/03/11 09:42:41;;;;;;;2.58;0.90;;;;;;;15.17;57.00;95459.88;2083621;28;20626;-62
2024/03/11 09:43:48;;;;;;;1.77;0.73;;;;;;;15.06;57.12;95446.78;2083822;28;20204;-62
2024/03/11 09:44:56;;;;;;;1.40;0.70;;;;;;;15.40;57.96;95458.94;2083431;28;20212;-62
2024/03/11 09:45:58;;;;;;;2.00;0.90;;;;;;;15.66;57.19;95452.31;2081100;28;20216;-68
2024/03/11 09:47:00;;;;;;;2.95;0.80;;;;;;;15.14;58.17;95440.88;2084574;28;20648;-68
2024/03/11 09:48:04;;;;;;;2.30;0.70;;;;;;;15.84;55.77;95451.75;2081914;28;20287;-68
2024/03/11 09:49:07;;;;;;;1.70;0.73;;;;;;;15.95;55.20;95451.69;2083638;28;20228;-68
2024/03/11 09:50:11;;;;;;;1.65;0.68;;;;;;;16.05;55.02;95451.75;2080713;28;20216;-68
2024/03/11 09:51:15;;;;;;;1.20;0.60;;;;;;;16.06;55.30;95455.19;2084812;28;20651;-68
2024/03/11 09:52:20;;;;;;;4.68;1.25;;;;;;;16.14;55.45;95453.56;2079890;28;20197;-68
2024/03/11 09:53:25;;;;;;;5.18;1.60;;;;;;;15.68;56.21;95453.03;2082451;28;20205;-68
2024/03/11 09:54:28;;;;;;;2.70;1.08;;;;;;;15.48;56.35;95448.63;2074215;28;20653;-68
2024/03/11 09:55:31;;;;;;;4.15;1.00;;;;;;;15.93;56.40;95443.06;2081022;28;20232;-68
2024/03/11 09:56:34;;;;;;;2.60;1.00;;;;;;;16.16;56.12;95448.19;2085579;28;20196;-68
2024/03/11 09:57:37;;;;;;;2.55;0.90;;;;;;;15.91;55.71;95444.16;2082677;28;20640;-68
2024/03/11 09:58:45;;;;;;;3.47;0.88;;;;;;;15.76;56.04;95455.03;2080013;28;20816;-68
2024/03/11 09:59:49;;;;;;;5.05;1.10;;;;;;;16.11;55.27;95456.50;2081464;28;20212;-68
2024/03/11 10:00:57;;;;;;;1.60;0.80;;;;;;;16.25;54.86;95449.19;2092234;28;20298;-68
2024/03/11 10:02:00;;;;;;;1.52;0.80;;;;;;;15.71;56.11;95454.56;2089644;28;20301;-68
2024/03/11 10:03:05;;;;;;;2.13;0.98;;;;;;;15.14;55.46;95457.47;2083659;28;20250;-68
2024/03/11 10:04:09;;;;;;;2.15;0.95;;;;;;;14.96;56.33;95451.13;2083537;28;20249;-62
2024/03/11 10:05:10;;;;;;;1.73;0.90;;;;;;;15.51;54.40;95440.47;2083780;28;20193;-62
2024/03/11 10:06:13;;;;;;;1.73;0.70;;;;;;;15.69;53.43;95456.50;2083763;28;20196;-63
2024/03/11 10:07:14;;;;;;;2.40;1.25;;;;;;;15.86;53.15;95451.63;2082736;28;20197;-62
2024/03/11 10:08:18;;;;;;;1.88;1.13;;;;;;;15.88;53.32;95462.88;2083349;28;20200;-62
2024/03/11 10:09:19;;;;;;;3.10;1.00;;;;;;;16.12;53.14;95447.59;2083739;28;20201;-62
2024/03/11 10:10:24;;;;;;;4.32;0.70;;;;;;;16.54;52.16;95454.53;2081509;28;20901;-62
2024/03/11 10:11:28;;;;;;;1.10;0.60;;;;;;;15.98;52.76;95467.22;2082961;28;20208;-62
2024/03/11 10:12:31;;;;;;;1.75;0.60;;;;;;;15.60;54.14;95455.47;2082255;28;20204;-61
2024/03/11 10:13:33;;;;;;;1.52;0.60;;;;;;;15.88;53.77;95460.25;2079980;28;20201;-62
2024/03/11 10:14:36;;;;;;;3.00;1.00;;;;;;;16.50;53.43;95455.78;2083604;28;20224;-62
2024/03/11 10:15:37;;;;;;;2.78;0.90;;;;;;;16.83;52.75;95450.34;2081897;28;20758;-62
2024/03/11 10:16:39;;;;;;;1.65;0.70;;;;;;;16.55;52.93;95458.03;2082789;28;20316;-62
2024/03/11 10:17:43;;;;;;;1.50;0.90;;;;;;;16.59;52.94;95459.44;2082413;28;20201;-69
2024/03/11 10:18:55;;;;;;;1.85;0.93;;;;;;;16.09;51.86;95466.31;2082125;28;20203;-68
2024/03/11 10:20:00;;;;;;;1.83;0.80;;;;;;;15.77;52.90;95455.84;2081616;28;20204;-68
2024/03/11 10:21:03;;;;;;;3.38;0.68;;;;;;;14.34;54.96;95458.59;2082072;28;20225;-69
2024/03/11 10:22:08;;;;;;;2.47;1.13;;;;;;;12.93;58.30;95455.22;2083574;28;20193;-68
2024/03/11 10:23:18;;;;;;;1.73;0.70;;;;;;;11.81;59.03;95473.44;2089849;28;20196;-62
2024/03/11 10:24:19;;;;;;;3.42;0.70;;;;;;;11.26;61.24;95470.97;2091218;28;20245;-62
2024/03/11 10:25:27;;;;;;;1.88;0.80;;;;;;;11.01;62.92;95465.66;2090372;28;20219;-61
2024/03/11 10:26:33;;;;;;;2.47;0.70;;;;;;;10.87;63.80;95464.81;2087131;28;20192;-62
2024/03/11 10:27:40;;;;;;;3.15;0.80;;;;;;;10.74;64.84;95469.13;2086705;28;20208;-62
2024/03/11 10:28:49;;;;;;;5.40;0.80;;;;;;;10.42;66.44;95457.19;2079651;28;20202;-62
2024/03/11 10:29:51;;;;;;;6.38;1.10;;;;;;;10.36;66.94;95469.78;2082650;28;20229;-62
2024/03/11 10:30:52;;;;;;;6.28;1.20;;;;;;;10.37;67.29;95474.06;2083856;28;20223;-62
2024/03/11 10:31:55;;;;;;;2.17;0.93;;;;;;;10.32;67.05;95474.31;2085074;28;20208;-61
2024/03/11 10:33:01;;;;;;;4.70;0.90;;;;;;;10.36;67.99;95475.84;2086957;28;20196;-61
2024/03/11 10:34:13;;;;;;;2.85;1.02;;;;;;;10.50;67.11;95474.13;2082139;28;20700;-68
2024/03/11 10:35:20;;;;;;;2.72;1.00;;;;;;;10.45;66.88;95474.44;2080474;28;20231;-68
2024/03/11 10:36:24;;;;;;;3.15;1.40;;;;;;;10.50;66.84;95472.38;2083738;28;20647;-68
2024/03/11 10:37:27;;;;;;;6.00;1.50;;;;;;;10.84;67.08;95472.81;2082971;28;20717;-68
2024/03/11 10:38:28;;;;;;;2.40;0.90;;;;;;;12.57;63.23;95465.63;2079907;28;20228;-62
2024/03/11 10:39:37;;;;;;;3.88;0.70;;;;;;;14.09;58.11;95467.56;2079886;28;20201;-68
2024/03/11 10:40:44;;;;;;;1.17;0.55;;;;;;;14.21;56.75;95456.94;2090799;28;20732;-68
2024/03/11 10:41:49;;;;;;;1.50;0.70;;;;;;;13.70;57.61;95467.88;2090839;28;20570;-68
2024/03/11 10:42:54;;;;;;;2.05;0.60;;;;;;;12.74;58.45;95464.38;2083480;28;20859;-68
2024/03/11 10:43:57;;;;;;;3.17;0.80;;;;;;;12.18;59.46;95475.34;2082495;28;20608;-68
2024/03/11 10:44:59;;;;;;;2.17;0.60;;;;;;;11.70;60.54;95466.31;2089873;28;20191;-67
2024/03/11 10:46:15;;;;;;;1.65;0.70;;;;;;;11.23;61.84;95468.53;2091766;28;20204;-61
2024/03/11 10:47:21;;;;;;;1.20;0.70;;;;;;;11.08;63.29;95469.56;2083685;28;20188;-62
2024/03/11 10:48:29;;;;;;;2.03;0.90;;;;;;;11.07;63.62;95465.25;2081892;28;20205;-62
2024/03/11 10:49:30;;;;;;;2.80;0.70;;;;;;;11.16;64.73;95472.53;2083551;28;20672;-62
2024/03/11 10:50:32;;;;;;;1.92;0.73;;;;;;;10.98;64.89;95474.53;2082810;28;20337;-61
2024/03/11 10:51:34;;;;;;;1.40;0.70;;;;;;;11.05;65.75;95480.22;2081847;28;20715;-63
2024/03/11 10:52:36;;;;;;;2.95;0.95;;;;;;;11.37;65.83;95478.09;2079763;28;20197;-62
2024/03/11 10:53:39;;;;;;;2.60;1.20;;;;;;;11.66;65.96;95477.09;2080245;28;20292;-63
2024/03/11 10:54:47;;;;;;;2.20;1.38;;;;;;;11.74;63.21;95470.41;2083225;28;20209;-68
2024/03/11 10:56:11;;;;;;;1.30;0.63;;;;;;;11.51;63.73;95474.56;2083267;28;20303;-68
2024/03/11 10:57:26;;;;;;;1.60;0.80;;;;;;;11.33;63.97;95473.19;2081095;28;20201;-68
2024/03/11 10:58:31;;;;;;;1.92;0.65;;;;;;;11.15;64.26;95477.81;2082441;28;20300;-68
2024/03/11 10:59:35;;;;;;;1.70;0.70;;;;;;;10.83;64.68;95470.31;2083434;28;20197;-68
2024/03/11 11:00:36;;;;;;;3.65;1.27;;;;;;;11.13;65.50;95472.72;2081841;28;20307;-67
2024/03/11 11:01:39;;;;;;;2.85;1.17;;;;;;;11.52;64.20;95473.63;2091671;28;20342;-68
2024/03/11 11:02:41;;;;;;;1.70;0.70;;;;;;;11.33;64.17;95481.84;2090140;28;20241;-68
2024/03/11 11:03:47;;;;;;;3.35;0.80;;;;;;;11.35;64.46;95458.22;2083286;28;20186;-68
2024/03/11 11:04:52;;;;;;;1.48;0.80;;;;;;;11.31;64.87;95477.66;2083459;28;20223;-68
2024/03/11 11:06:00;;;;;;;1.20;0.60;;;;;;;11.35;64.57;95484.34;2082584;28;20581;-67
2024/03/11 11:07:03;;;;;;;1.70;0.70;;;;;;;11.41;64.06;95482.19;2079704;28;20200;-68
2024/03/11 11:08:07;;;;;;;2.92;0.90;;;;;;;11.25;63.62;95479.75;2080761;28;20192;-68
2024/03/11 11:09:11;;;;;;;1.73;0.70;;;;;;;11.51;63.29;95478.97;2081644;28;20521;-68
2024/03/11 11:10:17;;;;;;;1.63;0.60;;;;;;;12.96;60.25;95475.94;2078959;28;20200;-68
2024/03/11 11:11:21;;;;;;;1.58;0.70;;;;;;;13.60;58.05;95474.75;2082276;28;20212;-68
2024/03/11 11:12:23;;;;;;;3.35;0.82;;;;;;;14.24;57.26;95474.22;2079553;28;20698;-68
2024/03/11 11:13:29;;;;;;;1.85;0.80;;;;;;;14.99;54.51;95472.69;2084594;28;20209;-68
2024/03/11 11:14:33;;;;;;;1.65;0.70;;;;;;;15.41;53.68;95473.75;2082498;28;20201;-68
2024/03/11 11:15:36;;;;;;;1.42;0.60;;;;;;;15.46;52.95;95474.22;2072929;28;20723;-68
2024/03/11 11:16:43;;;;;;;2.47;0.68;;;;;;;15.39;51.87;95479.16;2082699;28;20207;-68
2024/03/11 11:17:45;;;;;;;1.50;0.80;;;;;;;14.51;53.66;95455.50;2082642;28;20196;-68
2024/03/11 11:18:46;;;;;;;1.75;0.60;;;;;;;13.99;54.71;95478.78;2089448;28;20801;-68
2024/03/11 11:19:52;;;;;;;1.10;0.60;;;;;;;13.20;56.45;95484.63;2091125;28;20231;-68
2024/03/11 11:20:54;;;;;;;3.63;1.05;;;;;;;12.84;57.85;95486.34;2081833;28;20676;-68
2024/03/11 11:21:56;;;;;;;1.25;0.70;;;;;;;12.24;58.74;95483.56;2083435;28;20540;-68
2024/03/11 11:23:02;;;;;;;1.40;0.70;;;;;;;11.96;59.38;95486.44;2079481;28;20200;-68
2024/03/11 11:24:29;;;;;;;3.75;0.60;;;;;;;11.48;60.62;95492.22;2084095;28;20231;-68
2024/03/11 11:25:42;;;;;;;1.80;0.70;;;;;;;11.06;59.19;95474.88;2084380;28;20239;-68
2024/03/11 11:26:43;;;;;;;1.20;0.60;;;;;;;10.86;58.72;95473.56;2084289;28;20242;-67
2024/03/11 11:27:51;;;;;;;1.30;0.60;;;;;;;10.85;59.84;95484.94;2083030;28;20641;-68
2024/03/11 11:29:01;;;;;;;1.95;0.63;;;;;;;10.77;60.61;95480.22;2084177;28;20266;-67
2024/03/11 11:30:14;;;;;;;1.30;0.60;;;;;;;10.80;61.14;95475.75;2078918;28;20201;-68
2024/03/11 11:31:25;;;;;;;1.95;0.80;;;;;;;10.76;60.72;95472.47;2084041;28;20229;-67
2024/03/11 11:32:32;;;;;;;2.42;1.00;;;;;;;10.98;60.41;95484.97;2083544;28;20216;-68
2024/03/11 11:33:56;;;;;;;5.07;2.22;;;;;;;11.07;60.25;95484.41;2089139;28;20196;-68
2024/03/11 11:34:57;;;;;;;4.88;2.60;;;;;;;11.27;60.67;95483.09;2083608;28;20211;-67
2024/03/11 11:35:59;;;;;;;3.60;1.27;;;;;;;11.27;60.24;95482.25;2091144;28;20307;-68
2024/03/11 11:37:02;;;;;;;2.20;0.90;;;;;;;10.73;60.60;95418.69;2083326;28;20775;-67
2024/03/11 11:38:26;;;;;;;1.80;0.77;;;;;;;11.09;60.57;95479.91;2083327;28;20288;-68
2024/03/11 11:39:32;;;;;;;1.80;1.13;;;;;;;10.95;60.75;95483.41;2080259;28;20276;-67
2024/03/11 11:40:35;;;;;;;1.92;1.08;;;;;;;10.99;61.41;95481.44;2081254;28;20224;-67
2024/03/11 11:41:39;;;;;;;1.50;0.80;;;;;;;11.26;62.01;95477.97;2079410;28;20566;-68
2024/03/11 11:42:41;;;;;;;12.52;0.70;;;;;;;11.25;61.03;95474.53;2079589;28;20200;-67
2024/03/11 11:43:44;;;;;;;1.60;0.75;;;;;;;11.34;60.16;95473.06;2084272;28;20196;-67
2024/03/11 11:44:47;;;;;;;2.95;1.38;;;;;;;11.38;59.70;95466.69;2083077;28;20376;-67
2024/03/11 11:45:57;;;;;;;1.98;0.90;;;;;;;11.86;58.19;95463.50;2080470;28;20224;-68
2024/03/11 11:47:01;;;;;;;1.80;1.00;;;;;;;12.87;56.56;95472.19;2082052;28;20201;-68
2024/03/11 11:48:20;;;;;;;2.70;1.40;;;;;;;12.66;58.22;95467.56;2081679;28;20645;-68
2024/03/11 11:49:23;;;;;;;2.00;1.20;;;;;;;12.50;58.66;95467.81;2084638;28;20282;-68
2024/03/11 11:50:25;;;;;;;2.60;1.25;;;;;;;12.39;59.14;95476.44;2082309;28;20220;-68
2024/03/11 11:51:26;;;;;;;2.70;1.30;;;;;;;12.12;59.58;95468.72;2079353;28;20212;-68
2024/03/11 11:52:28;;;;;;;4.15;1.10;;;;;;;12.05;58.95;95476.16;2080040;28;20196;-68
2024/03/11 11:53:32;;;;;;;2.85;1.00;;;;;;;12.21;58.57;95477.72;2082820;28;20197;-68
2024/03/11 11:54:37;;;;;;;1.77;0.70;;;;;;;12.17;58.84;95479.72;2083773;28;20302;-68
2024/03/11 11:55:51;;;;;;;2.10;1.20;;;;;;;11.77;58.67;95475.41;2082152;28;20739;-67
2024/03/11 11:56:59;;;;;;;2.90;1.00;;;;;;;11.89;59.23;95476.34;2084937;28;20204;-68